<?xml version="1.0" encoding="UTF-8" standalone="no" ?>
<gpx xmlns="http://www.topografix.com/GPX/1/1" xmlns:xsi="http://www.w3.org/2001/XMLSchema-instance" xsi:schemaLocation="http://www.topografix.com/GPX/1/1 http://www.topografix.com/GPX/1/1/gpx.xsd" version="1.1" creator="VisuGPX - https://www.visugpx.com">
  <metadata>
    <name>Rando LN</name>
  </metadata>
  <trk>
    <name><![CDATA[Estaing]]></name>
    <trkseg>
      <trkpt lat="44.56924" lon="2.589">
        <ele>654.057</ele>
        <time>2015-08-05T16:25:07Z</time>
      </trkpt>
      <trkpt lat="44.56924" lon="2.589">
        <ele>654.057</ele>
        <time>2015-08-05T16:25:07Z</time>
      </trkpt>
      <trkpt lat="44.56924" lon="2.589">
        <ele>654.057</ele>
        <time>2015-08-05T16:25:07Z</time>
      </trkpt>
      <trkpt lat="44.56924" lon="2.589">
        <ele>654.057</ele>
        <time>2015-08-05T16:25:07Z</time>
      </trkpt>
      <trkpt lat="44.56895" lon="2.589">
        <ele>653.273</ele>
        <time>2015-08-05T16:25:27Z</time>
      </trkpt>
      <trkpt lat="44.56899" lon="2.58962">
        <ele>653.135</ele>
        <time>2015-08-05T16:25:47Z</time>
      </trkpt>
      <trkpt lat="44.56881" lon="2.59011">
        <ele>654.789</ele>
        <time>2015-08-05T16:26:07Z</time>
      </trkpt>
      <trkpt lat="44.56875" lon="2.59059">
        <ele>655.406</ele>
        <time>2015-08-05T16:26:27Z</time>
      </trkpt>
      <trkpt lat="44.56772" lon="2.59147">
        <ele>652.026</ele>
        <time>2015-08-05T16:26:47Z</time>
      </trkpt>
      <trkpt lat="44.56681" lon="2.59242">
        <ele>649.408</ele>
        <time>2015-08-05T16:27:07Z</time>
      </trkpt>
      <trkpt lat="44.56537" lon="2.59447">
        <ele>629.054</ele>
        <time>2015-08-05T16:27:27Z</time>
      </trkpt>
      <trkpt lat="44.5654" lon="2.59557">
        <ele>623.359</ele>
        <time>2015-08-05T16:27:47Z</time>
      </trkpt>
      <trkpt lat="44.56561" lon="2.59583">
        <ele>625.079</ele>
        <time>2015-08-05T16:28:07Z</time>
      </trkpt>
      <trkpt lat="44.56592" lon="2.59588">
        <ele>623.721</ele>
        <time>2015-08-05T16:28:27Z</time>
      </trkpt>
      <trkpt lat="44.5661" lon="2.59552">
        <ele>624.233</ele>
        <time>2015-08-05T16:28:47Z</time>
      </trkpt>
      <trkpt lat="44.56631" lon="2.59551">
        <ele>624.354</ele>
        <time>2015-08-05T16:29:07Z</time>
      </trkpt>
      <trkpt lat="44.56641" lon="2.59608">
        <ele>620.37</ele>
        <time>2015-08-05T16:29:27Z</time>
      </trkpt>
      <trkpt lat="44.56608" lon="2.59647">
        <ele>619.312</ele>
        <time>2015-08-05T16:29:47Z</time>
      </trkpt>
      <trkpt lat="44.56576" lon="2.59704">
        <ele>618.988</ele>
        <time>2015-08-05T16:30:07Z</time>
      </trkpt>
      <trkpt lat="44.56458" lon="2.59675">
        <ele>617.324</ele>
        <time>2015-08-05T16:30:27Z</time>
      </trkpt>
      <trkpt lat="44.5641" lon="2.59707">
        <ele>618.426</ele>
        <time>2015-08-05T16:30:47Z</time>
      </trkpt>
      <trkpt lat="44.56377" lon="2.59789">
        <ele>616.708</ele>
        <time>2015-08-05T16:31:07Z</time>
      </trkpt>
      <trkpt lat="44.56373" lon="2.5983">
        <ele>618.314</ele>
        <time>2015-08-05T16:31:27Z</time>
      </trkpt>
      <trkpt lat="44.56321" lon="2.59888">
        <ele>615.179</ele>
        <time>2015-08-05T16:31:47Z</time>
      </trkpt>
      <trkpt lat="44.5626" lon="2.59928">
        <ele>614.169</ele>
        <time>2015-08-05T16:32:07Z</time>
      </trkpt>
      <trkpt lat="44.56199" lon="2.59937">
        <ele>621.181</ele>
        <time>2015-08-05T16:32:27Z</time>
      </trkpt>
      <trkpt lat="44.56136" lon="2.59861">
        <ele>626.383</ele>
        <time>2015-08-05T16:32:47Z</time>
      </trkpt>
      <trkpt lat="44.56101" lon="2.59839">
        <ele>627.094</ele>
        <time>2015-08-05T16:33:07Z</time>
      </trkpt>
      <trkpt lat="44.56028" lon="2.5984">
        <ele>628.89</ele>
        <time>2015-08-05T16:33:27Z</time>
      </trkpt>
      <trkpt lat="44.5592" lon="2.59782">
        <ele>623.812</ele>
        <time>2020-11-26T03:31:00Z</time>
      </trkpt>
      <trkpt lat="44.55853" lon="2.59708">
        <ele>619.576</ele>
        <time>2020-11-26T03:31:20Z</time>
      </trkpt>
      <trkpt lat="44.55807" lon="2.59606">
        <ele>616.59</ele>
        <time>2020-11-26T03:31:40Z</time>
      </trkpt>
      <trkpt lat="44.55786" lon="2.59608">
        <ele>613.819</ele>
        <time>2020-11-26T03:32:00Z</time>
      </trkpt>
      <trkpt lat="44.5578" lon="2.59698">
        <ele>609.408</ele>
        <time>2020-11-26T03:32:20Z</time>
      </trkpt>
      <trkpt lat="44.55689" lon="2.5981">
        <ele>600.763</ele>
        <time>2020-11-26T03:32:40Z</time>
      </trkpt>
      <trkpt lat="44.55592" lon="2.59827">
        <ele>596.238</ele>
        <time>2015-08-05T16:34:07Z</time>
      </trkpt>
      <trkpt lat="44.55385" lon="2.59942">
        <ele>586.458</ele>
        <time>2020-03-07T00:00:37Z</time>
      </trkpt>
      <trkpt lat="44.55295" lon="2.60038">
        <ele>579.66</ele>
        <time>2015-08-05T16:35:07Z</time>
      </trkpt>
      <trkpt lat="44.55277" lon="2.60059">
        <ele>576.672</ele>
        <time>2015-08-05T16:35:27Z</time>
      </trkpt>
      <trkpt lat="44.55223" lon="2.60096">
        <ele>567.763</ele>
        <time>2015-08-05T16:35:47Z</time>
      </trkpt>
      <trkpt lat="44.5516" lon="2.60176">
        <ele>560.319</ele>
        <time>2015-08-05T16:36:07Z</time>
      </trkpt>
      <trkpt lat="44.55149" lon="2.60203">
        <ele>560.811</ele>
        <time>2015-08-05T16:36:27Z</time>
      </trkpt>
      <trkpt lat="44.55169" lon="2.60302">
        <ele>560.921</ele>
        <time>2015-08-05T16:36:47Z</time>
      </trkpt>
      <trkpt lat="44.55124" lon="2.60411">
        <ele>552.741</ele>
        <time>2015-08-05T16:37:07Z</time>
      </trkpt>
      <trkpt lat="44.55122" lon="2.60593">
        <ele>538.105</ele>
        <time>2015-08-05T16:37:27Z</time>
      </trkpt>
      <trkpt lat="44.55117" lon="2.60635">
        <ele>533.608</ele>
        <time>2015-08-05T16:37:47Z</time>
      </trkpt>
      <trkpt lat="44.55073" lon="2.60705">
        <ele>534.558</ele>
        <time>2015-08-05T16:38:07Z</time>
      </trkpt>
      <trkpt lat="44.551" lon="2.60724">
        <ele>530.653</ele>
        <time>2015-08-05T16:38:27Z</time>
      </trkpt>
      <trkpt lat="44.55123" lon="2.6082">
        <ele>534.843</ele>
        <time>2015-08-05T16:38:47Z</time>
      </trkpt>
      <trkpt lat="44.55135" lon="2.60854">
        <ele>535.985</ele>
        <time>2015-08-05T16:39:07Z</time>
      </trkpt>
      <trkpt lat="44.55146" lon="2.60895">
        <ele>537.777</ele>
        <time>2015-08-05T16:39:27Z</time>
      </trkpt>
      <trkpt lat="44.55164" lon="2.60944">
        <ele>540.448</ele>
        <time>2015-08-05T16:39:47Z</time>
      </trkpt>
      <trkpt lat="44.55165" lon="2.61038">
        <ele>547.774</ele>
        <time>2015-08-05T16:40:07Z</time>
      </trkpt>
      <trkpt lat="44.55154" lon="2.61084">
        <ele>549.866</ele>
        <time>2015-08-05T16:40:27Z</time>
      </trkpt>
      <trkpt lat="44.55124" lon="2.61115">
        <ele>552.942</ele>
        <time>2015-08-05T16:40:47Z</time>
      </trkpt>
      <trkpt lat="44.55119" lon="2.61112">
        <ele>553.422</ele>
        <time>2015-08-05T16:41:07Z</time>
      </trkpt>
      <trkpt lat="44.55108" lon="2.61127">
        <ele>552.714</ele>
        <time>2015-08-05T16:41:27Z</time>
      </trkpt>
      <trkpt lat="44.55051" lon="2.61119">
        <ele>549.708</ele>
        <time>2015-08-05T16:41:47Z</time>
      </trkpt>
      <trkpt lat="44.54995" lon="2.61115">
        <ele>549.72</ele>
        <time>2015-08-05T16:42:07Z</time>
      </trkpt>
      <trkpt lat="44.54986" lon="2.6117">
        <ele>541.085</ele>
        <time>2015-08-05T16:42:27Z</time>
      </trkpt>
      <trkpt lat="44.5495" lon="2.61234">
        <ele>536.275</ele>
        <time>2015-08-05T16:42:47Z</time>
      </trkpt>
      <trkpt lat="44.5492" lon="2.61248">
        <ele>536.117</ele>
        <time>2015-08-05T16:43:07Z</time>
      </trkpt>
      <trkpt lat="44.54883" lon="2.61275">
        <ele>526.659</ele>
        <time>2015-08-05T16:43:27Z</time>
      </trkpt>
      <trkpt lat="44.54856" lon="2.61288">
        <ele>516.61</ele>
        <time>2015-08-05T16:43:47Z</time>
      </trkpt>
      <trkpt lat="44.54823" lon="2.61283">
        <ele>511.916</ele>
        <time>2015-08-05T16:44:07Z</time>
      </trkpt>
      <trkpt lat="44.54777" lon="2.61212">
        <ele>507.538</ele>
        <time>2015-08-05T16:44:27Z</time>
      </trkpt>
      <trkpt lat="44.54766" lon="2.61186">
        <ele>509.477</ele>
        <time>2015-08-05T16:44:47Z</time>
      </trkpt>
      <trkpt lat="44.5477" lon="2.61211">
        <ele>507.761</ele>
        <time>2015-08-05T16:45:07Z</time>
      </trkpt>
      <trkpt lat="44.54786" lon="2.61278">
        <ele>507.227</ele>
        <time>2015-08-05T16:45:27Z</time>
      </trkpt>
      <trkpt lat="44.54789" lon="2.61321">
        <ele>503.808</ele>
        <time>2015-08-05T16:45:47Z</time>
      </trkpt>
      <trkpt lat="44.5483" lon="2.61379">
        <ele>501.523</ele>
        <time>2015-08-05T16:46:07Z</time>
      </trkpt>
      <trkpt lat="44.54812" lon="2.61378">
        <ele>502.868</ele>
        <time>2015-08-05T16:46:27Z</time>
      </trkpt>
      <trkpt lat="44.54796" lon="2.61371">
        <ele>504.448</ele>
        <time>2015-08-05T16:46:47Z</time>
      </trkpt>
      <trkpt lat="44.54764" lon="2.61367">
        <ele>509.16</ele>
        <time>2015-08-05T16:47:07Z</time>
      </trkpt>
      <trkpt lat="44.54765" lon="2.61411">
        <ele>513.722</ele>
        <time>2015-08-05T16:47:27Z</time>
      </trkpt>
      <trkpt lat="44.54772" lon="2.61445">
        <ele>512.973</ele>
        <time>2015-08-05T16:47:47Z</time>
      </trkpt>
      <trkpt lat="44.54724" lon="2.61483">
        <ele>509.779</ele>
        <time>2015-08-05T16:48:07Z</time>
      </trkpt>
      <trkpt lat="44.54719" lon="2.61502">
        <ele>505.711</ele>
        <time>2015-08-05T16:48:27Z</time>
      </trkpt>
      <trkpt lat="44.54727" lon="2.61518">
        <ele>502.374</ele>
        <time>2015-08-05T16:48:47Z</time>
      </trkpt>
      <trkpt lat="44.5477" lon="2.61535">
        <ele>503.156</ele>
        <time>2015-08-05T16:49:07Z</time>
      </trkpt>
      <trkpt lat="44.54786" lon="2.61556">
        <ele>503.321</ele>
        <time>2015-08-05T16:49:27Z</time>
      </trkpt>
      <trkpt lat="44.54804" lon="2.61651">
        <ele>488.808</ele>
        <time>2015-08-05T16:49:47Z</time>
      </trkpt>
      <trkpt lat="44.54792" lon="2.61634">
        <ele>491.413</ele>
        <time>2015-08-05T16:50:07Z</time>
      </trkpt>
      <trkpt lat="44.54779" lon="2.61606">
        <ele>495.998</ele>
        <time>2015-08-05T16:50:27Z</time>
      </trkpt>
      <trkpt lat="44.54762" lon="2.61587">
        <ele>496.648</ele>
        <time>2015-08-05T16:50:47Z</time>
      </trkpt>
      <trkpt lat="44.5475" lon="2.61586">
        <ele>495.62</ele>
        <time>2015-08-05T16:51:07Z</time>
      </trkpt>
      <trkpt lat="44.54744" lon="2.61599">
        <ele>492.952</ele>
        <time>2015-08-05T16:51:27Z</time>
      </trkpt>
      <trkpt lat="44.54722" lon="2.61613">
        <ele>489.713</ele>
        <time>2015-08-05T16:51:47Z</time>
      </trkpt>
      <trkpt lat="44.54703" lon="2.6165">
        <ele>483.789</ele>
        <time>2015-08-05T16:52:07Z</time>
      </trkpt>
      <trkpt lat="44.54701" lon="2.61669">
        <ele>479.581</ele>
        <time>2015-08-05T16:52:27Z</time>
      </trkpt>
      <trkpt lat="44.54679" lon="2.61694">
        <ele>477.979</ele>
        <time>2015-08-05T16:52:47Z</time>
      </trkpt>
      <trkpt lat="44.54688" lon="2.61712">
        <ele>472.905</ele>
        <time>2015-08-05T16:53:07Z</time>
      </trkpt>
      <trkpt lat="44.54695" lon="2.61751">
        <ele>464.825</ele>
        <time>2015-08-05T16:53:27Z</time>
      </trkpt>
      <trkpt lat="44.54696" lon="2.61784">
        <ele>459.208</ele>
        <time>2015-08-05T16:53:47Z</time>
      </trkpt>
      <trkpt lat="44.5471" lon="2.61807">
        <ele>457.673</ele>
        <time>2015-08-05T16:54:07Z</time>
      </trkpt>
      <trkpt lat="44.54729" lon="2.61868">
        <ele>462.828</ele>
        <time>2015-08-05T16:54:27Z</time>
      </trkpt>
      <trkpt lat="44.54754" lon="2.61841">
        <ele>464.088</ele>
        <time>2015-08-05T16:54:47Z</time>
      </trkpt>
      <trkpt lat="44.54775" lon="2.61868">
        <ele>468.39</ele>
        <time>2015-08-05T16:55:07Z</time>
      </trkpt>
      <trkpt lat="44.54801" lon="2.61886">
        <ele>472.562</ele>
        <time>2015-08-05T16:55:27Z</time>
      </trkpt>
      <trkpt lat="44.54814" lon="2.61927">
        <ele>475.923</ele>
        <time>2015-08-05T16:55:47Z</time>
      </trkpt>
      <trkpt lat="44.54782" lon="2.62028">
        <ele>487.719</ele>
        <time>2015-08-05T16:56:07Z</time>
      </trkpt>
      <trkpt lat="44.54769" lon="2.62086">
        <ele>490.221</ele>
        <time>2015-08-05T16:56:27Z</time>
      </trkpt>
      <trkpt lat="44.54731" lon="2.62081">
        <ele>493.118</ele>
        <time>2015-08-05T16:56:47Z</time>
      </trkpt>
      <trkpt lat="44.54696" lon="2.62105">
        <ele>496.298</ele>
        <time>2015-08-05T16:57:07Z</time>
      </trkpt>
      <trkpt lat="44.54575" lon="2.62108">
        <ele>511.817</ele>
        <time>2015-08-05T16:57:27Z</time>
      </trkpt>
      <trkpt lat="44.54555" lon="2.62129">
        <ele>515.308</ele>
        <time>2015-08-05T16:57:47Z</time>
      </trkpt>
      <trkpt lat="44.5453" lon="2.62178">
        <ele>516.547</ele>
        <time>2015-08-05T16:58:07Z</time>
      </trkpt>
      <trkpt lat="44.54504" lon="2.62331">
        <ele>531.862</ele>
        <time>2015-08-05T16:58:27Z</time>
      </trkpt>
      <trkpt lat="44.54471" lon="2.62407">
        <ele>538.552</ele>
        <time>2015-08-05T16:58:47Z</time>
      </trkpt>
      <trkpt lat="44.54471" lon="2.62485">
        <ele>542.944</ele>
        <time>2015-08-05T16:59:07Z</time>
      </trkpt>
      <trkpt lat="44.54417" lon="2.62646">
        <ele>541.596</ele>
        <time>2015-08-05T16:59:27Z</time>
      </trkpt>
      <trkpt lat="44.54379" lon="2.62701">
        <ele>542.757</ele>
        <time>2015-08-05T16:59:47Z</time>
      </trkpt>
      <trkpt lat="44.54375" lon="2.62772">
        <ele>547.273</ele>
        <time>2015-08-05T17:00:07Z</time>
      </trkpt>
      <trkpt lat="44.54439" lon="2.62866">
        <ele>554.485</ele>
        <time>2015-08-05T17:00:27Z</time>
      </trkpt>
      <trkpt lat="44.5445" lon="2.62983">
        <ele>552.059</ele>
        <time>2015-08-05T17:00:47Z</time>
      </trkpt>
      <trkpt lat="44.54411" lon="2.63037">
        <ele>550.703</ele>
        <time>2015-08-05T17:01:07Z</time>
      </trkpt>
      <trkpt lat="44.54406" lon="2.63077">
        <ele>550.523</ele>
        <time>2015-08-05T17:01:27Z</time>
      </trkpt>
      <trkpt lat="44.54425" lon="2.63098">
        <ele>548.508</ele>
        <time>2015-08-05T17:01:47Z</time>
      </trkpt>
      <trkpt lat="44.54441" lon="2.63154">
        <ele>544.521</ele>
        <time>2015-08-05T17:02:07Z</time>
      </trkpt>
      <trkpt lat="44.54471" lon="2.63239">
        <ele>545.976</ele>
        <time>2015-08-05T17:02:27Z</time>
      </trkpt>
      <trkpt lat="44.54539" lon="2.63358">
        <ele>548.576</ele>
        <time>2015-08-05T17:02:47Z</time>
      </trkpt>
      <trkpt lat="44.54558" lon="2.63416">
        <ele>552.848</ele>
        <time>2015-08-05T17:03:07Z</time>
      </trkpt>
      <trkpt lat="44.54534" lon="2.63524">
        <ele>550.11</ele>
        <time>2015-08-05T17:03:27Z</time>
      </trkpt>
      <trkpt lat="44.54516" lon="2.63553">
        <ele>549.631</ele>
        <time>2015-08-05T17:03:47Z</time>
      </trkpt>
      <trkpt lat="44.54484" lon="2.63644">
        <ele>548.327</ele>
        <time>2015-08-05T17:04:07Z</time>
      </trkpt>
      <trkpt lat="44.54459" lon="2.63673">
        <ele>547.329</ele>
        <time>2015-08-05T17:04:27Z</time>
      </trkpt>
      <trkpt lat="44.54447" lon="2.63762">
        <ele>546.815</ele>
        <time>2015-08-05T17:04:47Z</time>
      </trkpt>
      <trkpt lat="44.54402" lon="2.63763">
        <ele>538.265</ele>
        <time>2015-08-05T17:05:07Z</time>
      </trkpt>
      <trkpt lat="44.54368" lon="2.63797">
        <ele>537.111</ele>
        <time>2015-08-05T17:05:27Z</time>
      </trkpt>
      <trkpt lat="44.54356" lon="2.63827">
        <ele>535.508</ele>
        <time>2015-08-05T17:05:47Z</time>
      </trkpt>
      <trkpt lat="44.54357" lon="2.63891">
        <ele>527.997</ele>
        <time>2015-08-05T17:06:07Z</time>
      </trkpt>
      <trkpt lat="44.54294" lon="2.63955">
        <ele>520.862</ele>
        <time>2015-08-05T17:06:27Z</time>
      </trkpt>
      <trkpt lat="44.5424" lon="2.6406">
        <ele>514.582</ele>
        <time>2015-08-05T17:06:47Z</time>
      </trkpt>
      <trkpt lat="44.54243" lon="2.64108">
        <ele>515.054</ele>
        <time>2015-08-05T17:07:07Z</time>
      </trkpt>
      <trkpt lat="44.54226" lon="2.64163">
        <ele>512.196</ele>
        <time>2015-08-05T17:07:27Z</time>
      </trkpt>
      <trkpt lat="44.54202" lon="2.64199">
        <ele>512.427</ele>
        <time>2015-08-05T17:07:47Z</time>
      </trkpt>
      <trkpt lat="44.54158" lon="2.64322">
        <ele>513.593</ele>
        <time>2015-08-05T17:08:07Z</time>
      </trkpt>
      <trkpt lat="44.54095" lon="2.64346">
        <ele>522.025</ele>
        <time>2015-08-05T17:08:27Z</time>
      </trkpt>
      <trkpt lat="44.54081" lon="2.64375">
        <ele>528.592</ele>
        <time>2015-08-05T17:08:47Z</time>
      </trkpt>
      <trkpt lat="44.5409" lon="2.64429">
        <ele>536.873</ele>
        <time>2015-08-05T17:09:07Z</time>
      </trkpt>
      <trkpt lat="44.54133" lon="2.64499">
        <ele>532.42</ele>
        <time>2015-08-05T17:09:27Z</time>
      </trkpt>
      <trkpt lat="44.54092" lon="2.64624">
        <ele>537.108</ele>
        <time>2015-08-05T17:09:47Z</time>
      </trkpt>
      <trkpt lat="44.54037" lon="2.64681">
        <ele>535.535</ele>
        <time>2015-08-05T17:10:07Z</time>
      </trkpt>
      <trkpt lat="44.53991" lon="2.64681">
        <ele>540.39</ele>
        <time>2015-08-05T17:10:27Z</time>
      </trkpt>
      <trkpt lat="44.53928" lon="2.64713">
        <ele>545.56</ele>
        <time>2015-08-05T17:10:47Z</time>
      </trkpt>
      <trkpt lat="44.5391" lon="2.64745">
        <ele>545.382</ele>
        <time>2015-08-05T17:11:07Z</time>
      </trkpt>
      <trkpt lat="44.53865" lon="2.64791">
        <ele>544.764</ele>
        <time>2015-08-05T17:11:27Z</time>
      </trkpt>
      <trkpt lat="44.53847" lon="2.64846">
        <ele>547.045</ele>
        <time>2015-08-05T17:11:47Z</time>
      </trkpt>
      <trkpt lat="44.53859" lon="2.649">
        <ele>547.161</ele>
        <time>2015-08-05T17:12:07Z</time>
      </trkpt>
      <trkpt lat="44.53843" lon="2.64965">
        <ele>547.673</ele>
        <time>2015-08-05T17:12:27Z</time>
      </trkpt>
      <trkpt lat="44.53848" lon="2.65015">
        <ele>547.282</ele>
        <time>2015-08-05T17:12:47Z</time>
      </trkpt>
      <trkpt lat="44.53891" lon="2.65187">
        <ele>553.843</ele>
        <time>2015-08-05T17:13:07Z</time>
      </trkpt>
      <trkpt lat="44.53923" lon="2.65285">
        <ele>557.617</ele>
        <time>2015-08-05T17:13:27Z</time>
      </trkpt>
      <trkpt lat="44.53948" lon="2.65389">
        <ele>558.908</ele>
        <time>2015-08-05T17:13:47Z</time>
      </trkpt>
      <trkpt lat="44.53948" lon="2.65446">
        <ele>559.164</ele>
        <time>2015-08-05T17:14:07Z</time>
      </trkpt>
      <trkpt lat="44.53935" lon="2.65495">
        <ele>558.479</ele>
        <time>2015-08-05T17:14:27Z</time>
      </trkpt>
      <trkpt lat="44.53938" lon="2.65562">
        <ele>555.989</ele>
        <time>2015-08-05T17:14:47Z</time>
      </trkpt>
      <trkpt lat="44.53894" lon="2.65797">
        <ele>547.051</ele>
        <time>2015-08-05T17:15:07Z</time>
      </trkpt>
      <trkpt lat="44.53878" lon="2.65837">
        <ele>545.293</ele>
        <time>2015-08-05T17:15:27Z</time>
      </trkpt>
      <trkpt lat="44.53872" lon="2.65892">
        <ele>544.324</ele>
        <time>2015-08-05T17:15:47Z</time>
      </trkpt>
      <trkpt lat="44.53906" lon="2.65955">
        <ele>541.23</ele>
        <time>2015-08-05T17:16:07Z</time>
      </trkpt>
      <trkpt lat="44.53958" lon="2.66016">
        <ele>540.162</ele>
        <time>2015-08-05T17:16:27Z</time>
      </trkpt>
      <trkpt lat="44.53994" lon="2.66084">
        <ele>533.947</ele>
        <time>2015-08-05T17:16:47Z</time>
      </trkpt>
      <trkpt lat="44.54028" lon="2.66105">
        <ele>533.029</ele>
        <time>2015-08-05T17:17:07Z</time>
      </trkpt>
      <trkpt lat="44.54057" lon="2.66112">
        <ele>531.821</ele>
        <time>2015-08-05T17:17:27Z</time>
      </trkpt>
      <trkpt lat="44.5408" lon="2.66228">
        <ele>530.208</ele>
        <time>2015-08-05T17:17:47Z</time>
      </trkpt>
      <trkpt lat="44.54118" lon="2.66295">
        <ele>529.77</ele>
        <time>2015-08-05T17:18:07Z</time>
      </trkpt>
      <trkpt lat="44.54137" lon="2.66334">
        <ele>528.055</ele>
        <time>2015-08-05T17:18:27Z</time>
      </trkpt>
      <trkpt lat="44.5421" lon="2.66403">
        <ele>522.515</ele>
        <time>2015-08-05T17:18:47Z</time>
      </trkpt>
      <trkpt lat="44.54231" lon="2.66494">
        <ele>517.587</ele>
        <time>2015-08-05T17:19:07Z</time>
      </trkpt>
      <trkpt lat="44.54237" lon="2.66591">
        <ele>508.939</ele>
        <time>2015-08-05T17:19:27Z</time>
      </trkpt>
      <trkpt lat="44.54253" lon="2.66651">
        <ele>501.91</ele>
        <time>2015-08-05T17:19:47Z</time>
      </trkpt>
      <trkpt lat="44.5425" lon="2.66697">
        <ele>501.826</ele>
        <time>2015-08-05T17:20:07Z</time>
      </trkpt>
      <trkpt lat="44.54266" lon="2.66764">
        <ele>497.048</ele>
        <time>2015-08-05T17:20:27Z</time>
      </trkpt>
      <trkpt lat="44.54311" lon="2.66797">
        <ele>484.829</ele>
        <time>2015-08-05T17:20:47Z</time>
      </trkpt>
      <trkpt lat="44.54333" lon="2.66823">
        <ele>482.3</ele>
        <time>2015-08-05T17:21:07Z</time>
      </trkpt>
      <trkpt lat="44.54365" lon="2.66849">
        <ele>483.12</ele>
        <time>2015-08-05T17:21:27Z</time>
      </trkpt>
      <trkpt lat="44.54384" lon="2.66922">
        <ele>475.008</ele>
        <time>2015-08-05T17:21:47Z</time>
      </trkpt>
      <trkpt lat="44.54378" lon="2.67027">
        <ele>466.948</ele>
        <time>2015-08-05T17:22:07Z</time>
      </trkpt>
      <trkpt lat="44.54451" lon="2.67125">
        <ele>474.733</ele>
        <time>2015-08-05T17:22:27Z</time>
      </trkpt>
      <trkpt lat="44.54514" lon="2.67259">
        <ele>471.583</ele>
        <time>2015-08-05T17:22:47Z</time>
      </trkpt>
      <trkpt lat="44.54585" lon="2.67384">
        <ele>462.835</ele>
        <time>2015-08-05T17:23:07Z</time>
      </trkpt>
      <trkpt lat="44.54614" lon="2.67414">
        <ele>461.927</ele>
        <time>2015-08-05T17:23:27Z</time>
      </trkpt>
      <trkpt lat="44.54629" lon="2.67408">
        <ele>457.518</ele>
        <time>2015-08-05T17:23:47Z</time>
      </trkpt>
      <trkpt lat="44.54701" lon="2.67401">
        <ele>447.954</ele>
        <time>2015-08-05T17:24:07Z</time>
      </trkpt>
      <trkpt lat="44.54741" lon="2.67383">
        <ele>440.546</ele>
        <time>2015-08-05T17:24:27Z</time>
      </trkpt>
      <trkpt lat="44.54916" lon="2.67337">
        <ele>418.943</ele>
        <time>2015-08-05T17:24:47Z</time>
      </trkpt>
      <trkpt lat="44.54954" lon="2.6729">
        <ele>404.364</ele>
        <time>2015-08-05T17:25:07Z</time>
      </trkpt>
      <trkpt lat="44.54989" lon="2.67255">
        <ele>392.51</ele>
        <time>2015-08-05T17:25:27Z</time>
      </trkpt>
      <trkpt lat="44.55018" lon="2.67238">
        <ele>379.908</ele>
        <time>2015-08-05T17:25:47Z</time>
      </trkpt>
      <trkpt lat="44.55043" lon="2.67234">
        <ele>369.58</ele>
        <time>2015-08-05T17:26:07Z</time>
      </trkpt>
      <trkpt lat="44.55091" lon="2.67261">
        <ele>363.475</ele>
        <time>2015-08-05T17:26:27Z</time>
      </trkpt>
      <trkpt lat="44.55176" lon="2.67284">
        <ele>341.165</ele>
        <time>2015-08-05T17:26:47Z</time>
      </trkpt>
      <trkpt lat="44.55222" lon="2.67285">
        <ele>329.967</ele>
        <time>2015-08-05T17:27:07Z</time>
      </trkpt>
    </trkseg>
  </trk>
</gpx>